createdAt,value
2019-03-15T00:01:00.816Z,95260.57
2019-03-15T00:03:27.848Z,95263.89
2019-03-15T00:05:55.224Z,95268.92
2019-03-15T00:08:23.483Z,95274.97
2019-03-15T00:10:50.534Z,95277.44
2019-03-15T00:13:17.578Z,95278.77
2019-03-15T00:15:44.631Z,95291.25
2019-03-15T00:18:11.917Z,95292.21
2019-03-15T00:20:38.977Z,95296.58
2019-03-15T00:23:06.285Z,95297.12
2019-03-15T00:25:33.341Z,95293.42
2019-03-15T00:28:00.384Z,95300.22
2019-03-15T00:30:27.448Z,95314.95
2019-03-15T00:32:54.784Z,95322.90
2019-03-15T00:35:21.894Z,95314.84
2019-03-15T00:37:48.954Z,95318.27
2019-03-15T00:40:16.747Z,95321.52
2019-03-15T00:42:44.117Z,95317.97
2019-03-15T00:45:11.166Z,95323.81
2019-03-15T00:47:38.216Z,95327.53
2019-03-15T00:50:05.552Z,95321.87
2019-03-15T00:52:32.907Z,95317.19
2019-03-15T00:55:00.482Z,95317.52
2019-03-15T00:57:27.566Z,95321.07
2019-03-15T00:59:54.872Z,95312.22
2019-03-15T01:02:22.228Z,95313.81
2019-03-15T01:04:49.474Z,95311.70
2019-03-15T01:07:16.527Z,95307.47
2019-03-15T01:09:43.881Z,95315.41
2019-03-15T01:12:11.190Z,95319.32
2019-03-15T01:14:38.228Z,95325.61
2019-03-15T01:17:05.637Z,95324.26
2019-03-15T01:19:32.676Z,95329.04
2019-03-15T01:22:00.772Z,95324.61
2019-03-15T01:24:28.110Z,95327.86
2019-03-15T01:26:56.128Z,95327.56
2019-03-15T01:29:23.452Z,95325.78
2019-03-15T01:31:50.795Z,95326.27
2019-03-15T01:34:18.147Z,95327.72
2019-03-15T01:36:45.442Z,95328.37
2019-03-15T01:39:12.767Z,95334.84
2019-03-15T01:41:40.111Z,95331.77
2019-03-15T01:44:07.481Z,95335.33
2019-03-15T01:46:34.822Z,95322.44
2019-03-15T01:49:02.179Z,95334.07
2019-03-15T01:51:29.215Z,95342.59
2019-03-15T01:53:56.579Z,95345.75
2019-03-15T01:56:25.128Z,95350.06
2019-03-15T01:58:52.185Z,95352.88
2019-03-15T02:01:19.582Z,95353.64
2019-03-15T02:03:46.937Z,95352.92
2019-03-15T02:06:13.974Z,95349.96
2019-03-15T02:08:41.323Z,95349.42
2019-03-15T02:11:08.677Z,95348.98
2019-03-15T02:13:36.095Z,95358.89
2019-03-15T02:16:03.088Z,95352.95
2019-03-15T02:18:30.453Z,95350.40
2019-03-15T02:20:57.577Z,95344.63
2019-03-15T02:23:24.621Z,95348.38
2019-03-15T02:25:52.037Z,95358.15
2019-03-15T02:28:19.346Z,95361.55
2019-03-15T02:30:46.699Z,95366.77
2019-03-15T02:33:13.827Z,95359.34
2019-03-15T02:35:41.208Z,95362.12
2019-03-15T02:38:08.577Z,95361.20
2019-03-15T02:40:35.611Z,95349.09
2019-03-15T02:43:02.671Z,95349.57
2019-03-15T02:45:30.013Z,95348.23
2019-03-15T02:47:57.380Z,95350.15
2019-03-15T02:50:24.400Z,95337.00
2019-03-15T02:52:51.768Z,95327.91
2019-03-15T02:55:18.812Z,95326.75
2019-03-15T02:57:46.192Z,95317.80
2019-03-15T03:00:13.989Z,95315.03
2019-03-15T03:02:41.599Z,95313.70
2019-03-15T03:05:08.632Z,95306.09
2019-03-15T03:07:35.671Z,95301.88
2019-03-15T03:10:02.732Z,95311.97
2019-03-15T03:12:30.918Z,95320.14
2019-03-15T03:14:58.366Z,95325.03
2019-03-15T03:17:26.015Z,95322.72
2019-03-15T03:19:54.100Z,95323.32
2019-03-15T03:22:21.122Z,95326.76
2019-03-15T03:24:48.172Z,95328.75
2019-03-15T03:27:15.565Z,95332.34
2019-03-15T03:29:42.612Z,95335.92
2019-03-15T03:32:09.648Z,95343.86
2019-03-15T03:34:36.704Z,95344.05
2019-03-15T03:37:03.729Z,95345.20
2019-03-15T03:39:31.109Z,95342.28
2019-03-15T03:41:58.468Z,95346.79
2019-03-15T03:44:25.508Z,95349.27
2019-03-15T03:46:52.884Z,95347.52
2019-03-15T03:49:19.937Z,95342.20
2019-03-15T03:51:46.970Z,95340.43
2019-03-15T03:54:14.317Z,95342.69
2019-03-15T03:56:41.595Z,95343.98
2019-03-15T03:59:08.885Z,95349.97
2019-03-15T04:01:36.277Z,95354.51
2019-03-15T04:04:03.330Z,95353.22
2019-03-15T04:06:30.411Z,95355.66
2019-03-15T04:08:57.460Z,95358.28
2019-03-15T04:11:24.780Z,95366.70
2019-03-15T04:13:51.826Z,95375.76
2019-03-15T04:16:19.131Z,95378.67
2019-03-15T04:18:46.177Z,95366.08
2019-03-15T04:21:13.217Z,95365.27
2019-03-15T04:23:40.631Z,95363.67
2019-03-15T04:26:08.645Z,95366.08
2019-03-15T04:28:35.944Z,95362.67
2019-03-15T04:31:03.309Z,95365.56
2019-03-15T04:33:30.441Z,95370.22
2019-03-15T04:35:57.832Z,95361.61
2019-03-15T04:38:25.169Z,95373.25
2019-03-15T04:40:52.523Z,95379.42
2019-03-15T04:43:19.902Z,95382.81
2019-03-15T04:45:47.254Z,95388.52
2019-03-15T04:48:14.590Z,95393.72
2019-03-15T04:50:41.902Z,95387.58
2019-03-15T04:53:09.317Z,95392.17
2019-03-15T04:55:42.601Z,95393.80
2019-03-15T04:58:09.949Z,95392.34
2019-03-15T05:00:37.304Z,95392.53
2019-03-15T05:03:04.661Z,95393.83
2019-03-15T05:05:31.720Z,95387.20
2019-03-15T05:07:58.757Z,95375.08
2019-03-15T05:10:25.809Z,95382.22
2019-03-15T05:12:58.383Z,95377.38
2019-03-15T05:15:25.757Z,95377.08
2019-03-15T05:17:54.217Z,95376.92
2019-03-15T05:20:21.581Z,95368.68
2019-03-15T05:22:49.154Z,95369.34
2019-03-15T05:25:16.204Z,95365.79
2019-03-15T05:27:43.236Z,95366.27
2019-03-15T05:30:10.590Z,95363.05
2019-03-15T05:32:40.090Z,95365.67
2019-03-15T05:35:07.141Z,95367.78
2019-03-15T05:37:34.178Z,95359.05
2019-03-15T05:40:01.543Z,95360.52
2019-03-15T05:42:28.581Z,95358.77
2019-03-15T05:44:55.947Z,95359.91
2019-03-15T05:47:22.997Z,95364.30
2019-03-15T05:49:50.270Z,95361.41
2019-03-15T05:52:17.318Z,95363.67
2019-03-15T05:54:44.653Z,95362.70
2019-03-15T05:57:11.960Z,95365.33
2019-03-15T05:59:38.997Z,95362.58
2019-03-15T06:02:06.052Z,95363.55
2019-03-15T06:04:33.377Z,95355.62
2019-03-15T06:07:00.424Z,95351.59
2019-03-15T06:09:27.459Z,95356.28
2019-03-15T06:11:54.679Z,95356.95
2019-03-15T06:14:21.694Z,95360.83
2019-03-15T06:16:48.743Z,95366.97
2019-03-15T06:19:16.018Z,95363.72
2019-03-15T06:21:43.408Z,95362.91
2019-03-15T06:24:10.790Z,95367.77
2019-03-15T06:26:38.097Z,95369.84
2019-03-15T06:29:05.475Z,95372.77
2019-03-15T06:31:32.831Z,95382.64
2019-03-15T06:34:00.178Z,95377.28
2019-03-15T06:36:27.229Z,95390.08
2019-03-15T06:38:54.581Z,95386.98
2019-03-15T06:41:21.880Z,95390.38
2019-03-15T06:43:49.208Z,95382.13
2019-03-15T06:46:16.508Z,95389.59
2019-03-15T06:48:45.250Z,95376.50
2019-03-15T06:51:12.793Z,95378.60
2019-03-15T06:53:39.913Z,95373.24
2019-03-15T06:56:06.946Z,95375.50
2019-03-15T06:58:34.246Z,95382.94
2019-03-15T07:01:01.616Z,95388.91
2019-03-15T07:03:28.972Z,95387.91
2019-03-15T07:05:56.001Z,95394.54
2019-03-15T07:08:23.354Z,95387.22
2019-03-15T07:10:50.708Z,95386.23
2019-03-15T07:13:18.066Z,95388.00
2019-03-15T07:15:45.095Z,95393.99
2019-03-15T07:18:12.145Z,95400.16
2019-03-15T07:20:39.182Z,95401.46
2019-03-15T07:23:06.478Z,95406.94
2019-03-15T07:25:33.836Z,95409.86
2019-03-15T07:28:01.175Z,95400.77
2019-03-15T07:30:28.206Z,95402.54
2019-03-15T07:32:56.474Z,95398.02
2019-03-15T07:35:24.265Z,95398.23
2019-03-15T07:37:51.387Z,95401.01
2019-03-15T07:40:18.550Z,95392.13
2019-03-15T07:42:45.551Z,95396.31
2019-03-15T07:45:12.583Z,95396.16
2019-03-15T07:47:39.911Z,95391.65
2019-03-15T07:50:06.943Z,95391.98
2019-03-15T07:52:34.312Z,95377.08
2019-03-15T07:55:01.699Z,95385.02
2019-03-15T07:57:28.969Z,95380.14
2019-03-15T07:59:56.275Z,95383.73
2019-03-15T08:02:23.629Z,95374.84
2019-03-15T08:04:51.917Z,95383.25
2019-03-15T08:07:20.182Z,95369.79
2019-03-15T08:09:51.062Z,95369.30
2019-03-15T08:12:16.917Z,95362.20
2019-03-15T08:14:43.946Z,95362.70
2019-03-15T08:17:10.992Z,95363.55
2019-03-15T08:19:38.311Z,95364.54
2019-03-15T08:22:05.356Z,95361.82
2019-03-15T08:24:32.387Z,95362.78
2019-03-15T08:26:59.415Z,95355.56
2019-03-15T08:29:26.793Z,95353.14
2019-03-15T08:31:54.269Z,95347.48
2019-03-15T08:34:21.602Z,95346.53
2019-03-15T08:36:48.635Z,95347.03
2019-03-15T08:39:15.681Z,95347.56
2019-03-15T08:41:43.053Z,95337.90
2019-03-15T08:44:10.454Z,95339.88
2019-03-15T08:46:37.766Z,95338.94
2019-03-15T08:49:04.816Z,95321.59
2019-03-15T08:51:32.169Z,95324.16
2019-03-15T08:53:59.520Z,95317.54
2019-03-15T08:56:26.892Z,95313.01
2019-03-15T08:58:54.231Z,95320.97
2019-03-15T09:01:23.800Z,95326.48
2019-03-15T09:03:50.376Z,95331.68
2019-03-15T09:06:17.749Z,95328.60
2019-03-15T09:08:45.084Z,95324.70
2019-03-15T09:11:12.121Z,95327.48
2019-03-15T09:13:39.162Z,95326.52
2019-03-15T09:16:06.556Z,95318.23
2019-03-15T09:18:34.272Z,95314.85
2019-03-15T09:21:01.314Z,95298.78
2019-03-15T09:23:28.707Z,95300.23
2019-03-15T09:25:56.068Z,95283.14
2019-03-15T09:28:23.118Z,95284.11
2019-03-15T09:30:50.670Z,95268.36
2019-03-15T09:33:17.718Z,95272.91
2019-03-15T09:35:44.749Z,95279.73
2019-03-15T09:38:12.122Z,95269.03
2019-03-15T09:40:39.482Z,95265.13
2019-03-15T09:43:06.512Z,95277.11
2019-03-15T09:45:33.560Z,95269.83
2019-03-15T09:48:00.587Z,95268.05
2019-03-15T09:50:34.215Z,95276.00
2019-03-15T09:52:56.661Z,95268.16
2019-03-15T09:55:32.845Z,95258.90
2019-03-15T09:57:52.745Z,95267.34
2019-03-15T10:00:19.798Z,95259.36
2019-03-15T10:02:46.898Z,95260.17
2019-03-15T10:05:13.984Z,95267.02
2019-03-15T10:07:43.438Z,95262.00
2019-03-15T10:10:13.802Z,95266.41
2019-03-15T10:12:38.745Z,95262.04
2019-03-15T10:15:07.956Z,95254.23
2019-03-15T10:17:34.828Z,95244.80
2019-03-15T10:20:01.890Z,95239.75
2019-03-15T10:22:28.899Z,95251.89
2019-03-15T10:24:55.944Z,95246.86
2019-03-15T10:27:22.991Z,95249.70
2019-03-15T10:29:50.016Z,95247.39
2019-03-15T10:32:17.314Z,95255.90
2019-03-15T10:34:44.362Z,95238.95
2019-03-15T10:37:11.389Z,95237.20
2019-03-15T10:39:38.437Z,95227.78
2019-03-15T10:42:05.468Z,95230.22
2019-03-15T10:44:32.518Z,95219.77
2019-03-15T10:46:59.549Z,95233.97
2019-03-15T10:49:26.960Z,95238.14
2019-03-15T10:51:53.989Z,95238.77
2019-03-15T10:54:21.361Z,95242.84
2019-03-15T10:56:48.462Z,95240.20
2019-03-15T10:59:15.863Z,95244.52
2019-03-15T11:01:42.895Z,95247.45
2019-03-15T11:04:10.301Z,95240.62
2019-03-15T11:06:37.621Z,95249.70
2019-03-15T11:09:04.653Z,95256.17
2019-03-15T11:11:31.700Z,95255.36
2019-03-15T11:13:59.071Z,95254.06
2019-03-15T11:16:26.430Z,95258.99
2019-03-15T11:18:53.460Z,95248.98
2019-03-15T11:21:20.508Z,95256.13
2019-03-15T11:23:47.539Z,95257.84
2019-03-15T11:26:14.923Z,95254.66
2019-03-15T11:28:42.296Z,95259.51
2019-03-15T11:31:10.767Z,95255.72
2019-03-15T11:33:37.797Z,95268.98
2019-03-15T11:36:05.809Z,95263.70
2019-03-15T11:38:33.137Z,95253.07
2019-03-15T11:41:00.488Z,95263.31
2019-03-15T11:43:27.519Z,95248.73
2019-03-15T11:45:54.894Z,95259.29
2019-03-15T11:48:22.268Z,95249.54
2019-03-15T11:50:49.311Z,95261.27
2019-03-15T11:53:18.945Z,95258.03
2019-03-15T11:55:45.341Z,95257.50
2019-03-15T11:58:12.376Z,95262.77
2019-03-15T12:00:39.425Z,95262.13
2019-03-15T12:03:06.707Z,95258.98
2019-03-15T12:05:33.761Z,95265.20
2019-03-15T12:08:12.685Z,95263.58
2019-03-15T12:10:39.732Z,95254.31
2019-03-15T12:13:06.764Z,95245.64
2019-03-15T12:15:36.319Z,95262.45
2019-03-15T12:18:02.899Z,95244.20
2019-03-15T12:20:30.256Z,95277.11
2019-03-15T12:22:57.287Z,95252.52
2019-03-15T12:25:24.663Z,95257.38
2019-03-15T12:27:52.018Z,95256.75
2019-03-15T12:30:19.059Z,95260.30
2019-03-15T12:32:46.098Z,95267.22
2019-03-15T12:35:13.385Z,95261.95
2019-03-15T12:37:40.419Z,95272.74
2019-03-15T12:40:07.461Z,95267.63
2019-03-15T12:42:34.811Z,95278.95
2019-03-15T12:45:01.875Z,95282.68
2019-03-15T12:47:28.889Z,95271.98
2019-03-15T12:49:55.937Z,95268.25
2019-03-15T12:52:23.315Z,95282.59
2019-03-15T12:54:50.361Z,95285.20
2019-03-15T12:57:17.713Z,95294.50
2019-03-15T12:59:44.982Z,95279.53
2019-03-15T13:02:12.325Z,95298.59
2019-03-15T13:04:39.356Z,95296.66
2019-03-15T13:07:06.400Z,95295.67
2019-03-15T13:09:33.436Z,95296.79
2019-03-15T13:12:00.819Z,95287.71
2019-03-15T13:14:28.100Z,95287.53
2019-03-15T13:16:55.428Z,95288.97
2019-03-15T13:19:22.804Z,95299.53
2019-03-15T13:21:49.852Z,95298.55
2019-03-15T13:24:16.880Z,95293.33
2019-03-15T13:26:44.256Z,95300.70
2019-03-15T13:29:11.589Z,95302.67
2019-03-15T13:31:38.637Z,95305.06
2019-03-15T13:34:05.996Z,95313.20
2019-03-15T13:36:33.043Z,95308.44
2019-03-15T13:39:00.077Z,95311.98
2019-03-15T13:41:27.446Z,95291.17
2019-03-15T13:43:54.901Z,95306.68
2019-03-15T13:46:22.257Z,95307.00
2019-03-15T13:48:49.715Z,95314.68
2019-03-15T13:51:16.765Z,95303.63
2019-03-15T13:53:43.797Z,95307.71
2019-03-15T13:56:11.168Z,95310.50
2019-03-15T13:58:38.543Z,95313.87
2019-03-15T14:01:05.595Z,95324.48
2019-03-15T14:03:32.623Z,95316.34
2019-03-15T14:05:59.972Z,95329.52
2019-03-15T14:08:27.328Z,95309.96
2019-03-15T14:10:54.706Z,95313.23
2019-03-15T14:13:22.058Z,95319.44
2019-03-15T14:15:49.365Z,95314.41
2019-03-15T14:18:16.658Z,95337.23
2019-03-15T14:20:43.708Z,95344.24
2019-03-15T14:23:10.986Z,95317.55
2019-03-15T14:25:39.104Z,95330.58
2019-03-15T14:28:06.474Z,95330.09
2019-03-15T14:30:33.503Z,95324.06
2019-03-15T14:33:00.883Z,95333.81
2019-03-15T14:35:27.922Z,95334.63
2019-03-15T14:37:55.004Z,95330.54
2019-03-15T14:40:22.103Z,95323.88
2019-03-15T14:42:50.271Z,95338.54
2019-03-15T14:45:17.596Z,95310.67
2019-03-15T14:47:45.987Z,95323.53
2019-03-15T14:50:13.291Z,95327.27
2019-03-15T14:52:40.436Z,95316.03
2019-03-15T14:55:07.437Z,95313.28
2019-03-15T14:57:35.608Z,95325.19
2019-03-15T15:00:02.588Z,95303.35
2019-03-15T15:02:30.003Z,95319.17
2019-03-15T15:04:57.027Z,95315.75
2019-03-15T15:07:24.375Z,95320.64
2019-03-15T15:09:52.227Z,95331.88
2019-03-15T15:12:19.788Z,95329.09
2019-03-15T15:14:46.825Z,95323.57
2019-03-15T15:17:14.192Z,95312.66
2019-03-15T15:19:41.563Z,95325.86
2019-03-15T15:22:08.613Z,95329.14
2019-03-15T15:24:35.967Z,95338.93
2019-03-15T15:27:03.304Z,95332.41
2019-03-15T15:29:30.335Z,95317.77
2019-03-15T15:31:57.382Z,95320.37
2019-03-15T15:34:24.409Z,95319.70
2019-03-15T15:36:51.453Z,95333.05
2019-03-15T15:39:18.764Z,95336.64
2019-03-15T15:41:46.104Z,95321.98
2019-03-15T15:44:13.136Z,95322.30
2019-03-15T15:46:40.508Z,95319.88
2019-03-15T15:49:07.883Z,95322.16
2019-03-15T15:51:34.931Z,95301.32
2019-03-15T15:54:01.959Z,95308.33
2019-03-15T15:56:29.009Z,95320.55
2019-03-15T15:58:56.359Z,95314.84
2019-03-15T16:01:23.739Z,95324.59
2019-03-15T16:06:32.169Z,95340.91
2019-03-15T16:08:59.203Z,95337.98
2019-03-15T16:11:26.551Z,95341.58
2019-03-15T16:13:53.600Z,95324.63
2019-03-15T16:16:20.656Z,95331.95
2019-03-15T16:18:48.070Z,95323.02
2019-03-15T16:21:15.492Z,95335.06
2019-03-15T16:23:42.541Z,95331.64
2019-03-15T16:26:09.863Z,95333.75
2019-03-15T16:28:36.935Z,95343.86
2019-03-15T16:31:03.965Z,95345.66
2019-03-15T16:33:31.467Z,95342.06
2019-03-15T16:35:58.447Z,95360.80
2019-03-15T16:38:25.492Z,95352.66
2019-03-15T16:40:52.868Z,95341.44
2019-03-15T16:43:22.191Z,95360.80
2019-03-15T16:46:07.805Z,95370.42
2019-03-15T16:48:35.236Z,95365.38
2019-03-15T16:51:19.721Z,95370.23
2019-03-15T16:56:32.683Z,95381.34
2019-03-15T17:04:06.650Z,95389.26
2019-03-15T17:06:41.924Z,95381.76
2019-03-15T17:09:10.102Z,95372.32
2019-03-15T17:11:48.228Z,95372.00
2019-03-15T17:16:54.298Z,95368.41
2019-03-15T17:19:37.716Z,95385.17
2019-03-15T17:22:04.989Z,95385.81
2019-03-15T17:24:36.415Z,95389.26
2019-03-15T17:27:04.591Z,95393.20
2019-03-15T17:29:32.778Z,95388.97
2019-03-15T17:32:01.959Z,95378.73
2019-03-15T17:39:34.807Z,95386.23
2019-03-15T17:42:03.059Z,95392.25
2019-03-15T17:44:30.589Z,95391.94
2019-03-15T17:47:01.855Z,95398.77
2019-03-15T17:49:34.159Z,95393.38
2019-03-15T17:52:02.190Z,95395.00
2019-03-15T17:54:31.417Z,95388.16
2019-03-15T17:57:01.619Z,95382.95
2019-03-15T17:59:33.707Z,95380.17
2019-03-15T18:02:03.134Z,95396.80
2019-03-15T18:04:33.844Z,95397.11
2019-03-15T18:10:05.273Z,95384.26
2019-03-15T18:12:48.737Z,95388.02
2019-03-15T18:15:16.260Z,95378.91
2019-03-15T18:23:09.810Z,95399.26
2019-03-15T18:25:39.276Z,95382.00
2019-03-15T18:33:20.221Z,95383.63
2019-03-15T18:35:48.383Z,95384.43
2019-03-15T18:38:29.857Z,95364.08
2019-03-15T18:40:57.030Z,95379.53
2019-03-15T18:43:25.203Z,95395.67
2019-03-15T18:45:53.383Z,95399.75
2019-03-15T18:48:20.609Z,95396.97
2019-03-15T18:50:47.783Z,95394.54
2019-03-15T18:53:30.277Z,95403.48
2019-03-15T18:58:39.542Z,95398.94
2019-03-15T19:01:06.797Z,95408.20
2019-03-15T19:03:35.207Z,95400.56
2019-03-15T19:06:06.070Z,95404.78
2019-03-15T19:08:33.422Z,95410.00
2019-03-15T19:16:20.354Z,95401.20
2019-03-15T19:18:45.916Z,95402.00
2019-03-15T19:21:16.261Z,95408.20
2019-03-15T19:26:33.775Z,95416.83
2019-03-15T19:29:04.217Z,95413.59
2019-03-15T19:31:31.479Z,95427.25
2019-03-15T19:34:08.843Z,95421.55
2019-03-15T19:41:54.656Z,95429.05
2019-03-15T19:44:24.066Z,95432.47
2019-03-15T19:49:24.643Z,95429.55
2019-03-15T19:51:52.156Z,95429.86
2019-03-15T19:54:20.369Z,95418.63
2019-03-15T19:56:49.672Z,95430.84
2019-03-15T19:59:32.656Z,95438.34
2019-03-15T20:07:19.402Z,95429.40
2019-03-15T20:09:46.753Z,95429.72
2019-03-15T20:12:20.281Z,95431.52
2019-03-15T20:14:49.533Z,95437.19
2019-03-15T20:17:16.752Z,95450.39
2019-03-15T20:19:43.984Z,95457.58
2019-03-15T20:22:16.351Z,95465.22
2019-03-15T20:24:45.660Z,95467.51
2019-03-15T20:32:18.861Z,95473.53
2019-03-15T20:34:52.867Z,95472.55
2019-03-15T20:37:20.345Z,95473.84
2019-03-15T20:39:49.561Z,95482.33
2019-03-15T20:42:17.298Z,95490.64
2019-03-15T20:44:45.594Z,95488.84
2019-03-15T20:47:13.887Z,95476.31
2019-03-15T20:49:46.421Z,95483.95
2019-03-15T20:54:49.959Z,95488.17
2019-03-15T20:57:17.137Z,95490.15
2019-03-15T20:59:44.368Z,95505.47
2019-03-15T21:02:15.839Z,95495.68
2019-03-15T21:04:49.936Z,95504.16
2019-03-15T21:09:51.085Z,95496.66
2019-03-15T21:12:22.260Z,95496.34
2019-03-15T21:14:49.493Z,95501.88
2019-03-15T21:17:21.584Z,95506.11
2019-03-15T21:19:49.731Z,95512.94
2019-03-15T21:22:23.308Z,95514.24
2019-03-15T21:24:50.479Z,95531.50
2019-03-15T21:29:53.917Z,95524.17
2019-03-15T21:32:21.337Z,95517.17
2019-03-15T21:35:04.656Z,95524.67
2019-03-15T21:37:32.220Z,95497.97
2019-03-15T21:40:00.422Z,95516.70
2019-03-15T21:45:17.787Z,95531.36
2019-03-15T21:47:46.213Z,95524.66
2019-03-15T21:50:15.440Z,95528.11
2019-03-15T21:52:42.711Z,95520.61
2019-03-15T21:55:16.713Z,95539.98
2019-03-15T22:00:19.242Z,95537.55
2019-03-15T22:02:46.835Z,95536.39
2019-03-15T22:05:19.233Z,95519.80
2019-03-15T22:07:50.718Z,95541.59
2019-03-15T22:10:17.753Z,95540.30
2019-03-15T22:15:23.471Z,95551.39
2019-03-15T22:17:50.861Z,95558.40
2019-03-15T22:23:09.240Z,95534.13
2019-03-15T22:28:16.961Z,95560.36
2019-03-15T22:30:52.173Z,95560.86
2019-03-15T22:35:53.841Z,95558.73
2019-03-15T22:38:26.484Z,95563.31
2019-03-15T22:40:50.920Z,95559.41
2019-03-15T22:45:52.195Z,95557.28
2019-03-15T22:48:23.705Z,95562.99
2019-03-15T22:50:51.460Z,95566.73
2019-03-15T22:53:21.054Z,95564.61
2019-03-15T22:55:52.398Z,95562.81
2019-03-15T22:58:21.984Z,95562.81
2019-03-15T23:00:50.460Z,95565.25
2019-03-15T23:05:54.390Z,95567.22
2019-03-15T23:08:21.698Z,95579.27
2019-03-15T23:10:48.855Z,95583.02
2019-03-15T23:13:16.052Z,95584.33
2019-03-15T23:15:50.968Z,95578.30
2019-03-15T23:18:20.310Z,95588.73
2019-03-15T23:23:48.743Z,95584.50
2019-03-15T23:26:24.718Z,95583.19
2019-03-15T23:28:52.091Z,95586.29
2019-03-15T23:31:26.189Z,95594.11
2019-03-15T23:33:54.637Z,95589.88
2019-03-15T23:36:21.935Z,95597.20
2019-03-15T23:38:52.939Z,95587.77
2019-03-15T23:41:20.209Z,95603.23
2019-03-15T23:43:48.170Z,95596.72
2019-03-15T23:46:15.530Z,95592.48
2019-03-15T23:48:42.574Z,95589.56
2019-03-15T23:51:09.913Z,95579.80
2019-03-15T23:53:36.965Z,95593.80
2019-03-15T23:56:04.243Z,95590.54
2019-03-15T23:58:33.718Z,95580.78
